sensor_id;sensor_type;location;lat;lon;timestamp;temperature;humidity
32502;DHT22;18952;52.516;13.460;2023-03-01T00:00:24;0.40;99.90
32502;DHT22;18952;52.516;13.460;2023-03-01T00:02:50;0.40;99.90
32502;DHT22;18952;52.516;13.460;2023-03-01T00:05:17;0.30;99.90
32502;DHT22;18952;52.516;13.460;2023-03-01T00:07:44;0.30;99.90
32502;DHT22;18952;52.516;13.460;2023-03-01T00:10:11;0.30;99.90
32502;DHT22;18952;52.516;13.460;2023-03-01T00:12:38;0.30;99.90
32502;DHT22;18952;52.516;13.460;2023-03-01T00:15:05;0.30;99.90
32502;DHT22;18952;52.516;13.460;2023-03-01T00:17:32;0.30;99.90
32502;DHT22;18952;52.516;13.460;2023-03-01T00:19:58;0.30;99.90
32502;DHT22;18952;52.516;13.460;2023-03-01T00:22:26;0.20;99.90
32502;DHT22;18952;52.516;13.460;2023-03-01T00:24:53;0.20;99.90
32502;DHT22;18952;52.516;13.460;2023-03-01T00:27:20;0.20;99.90
32502;DHT22;18952;52.516;13.460;2023-03-01T00:29:47;0.20;99.90
32502;DHT22;18952;52.516;13.460;2023-03-01T00:32:13;0.20;99.90
32502;DHT22;18952;52.516;13.460;2023-03-01T00:34:40;0.20;99.90
32502;DHT22;18952;52.516;13.460;2023-03-01T00:37:07;0.10;99.90
32502;DHT22;18952;52.516;13.460;2023-03-01T00:39:34;0.10;99.90
32502;DHT22;18952;52.516;13.460;2023-03-01T00:42:01;0.10;99.90
32502;DHT22;18952;52.516;13.460;2023-03-01T00:44:27;0.10;99.90
32502;DHT22;18952;52.516;13.460;2023-03-01T00:46:54;0.00;99.90
32502;DHT22;18952;52.516;13.460;2023-03-01T00:49:21;0.00;99.90
32502;DHT22;18952;52.516;13.460;2023-03-01T00:51:48;0.00;99.90
32502;DHT22;18952;52.516;13.460;2023-03-01T00:54:15;-0.20;99.90
32502;DHT22;18952;52.516;13.460;2023-03-01T00:56:41;-0.30;99.90
32502;DHT22;18952;52.516;13.460;2023-03-01T00:59:10;-0.30;99.90
32502;DHT22;18952;52.516;13.460;2023-03-01T01:01:37;-0.40;99.90
32502;DHT22;18952;52.516;13.460;2023-03-01T01:04:07;-0.40;99.90
32502;DHT22;18952;52.516;13.460;2023-03-01T01:06:42;-0.40;99.90
32502;DHT22;18952;52.516;13.460;2023-03-01T01:09:11;-0.40;99.90
32502;DHT22;18952;52.516;13.460;2023-03-01T01:11:38;-0.50;99.90
32502;DHT22;18952;52.516;13.460;2023-03-01T01:14:05;-0.50;99.90
32502;DHT22;18952;52.516;13.460;2023-03-01T01:16:32;-0.50;99.90
32502;DHT22;18952;52.516;13.460;2023-03-01T01:18:59;-0.50;99.90
32502;DHT22;18952;52.516;13.460;2023-03-01T01:21:26;-0.50;99.90
32502;DHT22;18952;52.516;13.460;2023-03-01T01:23:54;-0.50;99.90
32502;DHT22;18952;52.516;13.460;2023-03-01T01:26:24;-0.50;99.90
32502;DHT22;18952;52.516;13.460;2023-03-01T01:28:52;-0.60;99.90
32502;DHT22;18952;52.516;13.460;2023-03-01T01:31:19;-0.60;99.90
32502;DHT22;18952;52.516;13.460;2023-03-01T01:33:46;-0.70;99.90
32502;DHT22;18952;52.516;13.460;2023-03-01T01:36:13;-0.70;99.90
32502;DHT22;18952;52.516;13.460;2023-03-01T01:38:40;-0.70;99.90
32502;DHT22;18952;52.516;13.460;2023-03-01T01:41:07;-0.70;99.90
32502;DHT22;18952;52.516;13.460;2023-03-01T01:43:41;-0.70;99.90
32502;DHT22;18952;52.516;13.460;2023-03-01T01:48:53;-0.70;99.90
32502;DHT22;18952;52.516;13.460;2023-03-01T01:51:28;-0.70;99.90
32502;DHT22;18952;52.516;13.460;2023-03-01T01:53:59;-0.80;99.90
32502;DHT22;18952;52.516;13.460;2023-03-01T01:56:27;-0.80;99.90
32502;DHT22;18952;52.516;13.460;2023-03-01T01:58:56;-0.70;99.90
32502;DHT22;18952;52.516;13.460;2023-03-01T02:01:23;-0.70;99.90
32502;DHT22;18952;52.516;13.460;2023-03-01T02:03:50;-0.70;99.90
32502;DHT22;18952;52.516;13.460;2023-03-01T02:06:20;-0.70;99.90
32502;DHT22;18952;52.516;13.460;2023-03-01T02:08:49;-0.70;99.90
32502;DHT22;18952;52.516;13.460;2023-03-01T02:11:20;-0.70;99.90
32502;DHT22;18952;52.516;13.460;2023-03-01T02:13:48;-0.60;99.90
32502;DHT22;18952;52.516;13.460;2023-03-01T02:16:15;-0.60;99.90
32502;DHT22;18952;52.516;13.460;2023-03-01T02:18:43;-0.60;99.90
32502;DHT22;18952;52.516;13.460;2023-03-01T02:21:17;-0.60;99.90
32502;DHT22;18952;52.516;13.460;2023-03-01T02:23:47;-0.50;99.90
32502;DHT22;18952;52.516;13.460;2023-03-01T02:26:37;-0.50;99.90
32502;DHT22;18952;52.516;13.460;2023-03-01T02:29:07;-0.50;99.90
32502;DHT22;18952;52.516;13.460;2023-03-01T02:31:34;-0.60;99.90
32502;DHT22;18952;52.516;13.460;2023-03-01T02:34:02;-0.70;99.90
32502;DHT22;18952;52.516;13.460;2023-03-01T02:36:31;-0.60;99.90
32502;DHT22;18952;52.516;13.460;2023-03-01T02:39:02;-0.60;99.90
32502;DHT22;18952;52.516;13.460;2023-03-01T02:41:34;-0.60;99.90
32502;DHT22;18952;52.516;13.460;2023-03-01T02:44:02;-0.50;99.90
32502;DHT22;18952;52.516;13.460;2023-03-01T02:46:29;-0.60;99.90
32502;DHT22;18952;52.516;13.460;2023-03-01T02:48:58;-0.60;99.90
32502;DHT22;18952;52.516;13.460;2023-03-01T02:56:37;-0.60;99.90
32502;DHT22;18952;52.516;13.460;2023-03-01T02:59:04;-0.60;99.90
32502;DHT22;18952;52.516;13.460;2023-03-01T03:01:31;-0.60;99.90
32502;DHT22;18952;52.516;13.460;2023-03-01T03:04:13;-0.60;99.90
32502;DHT22;18952;52.516;13.460;2023-03-01T03:06:40;-0.60;99.90
32502;DHT22;18952;52.516;13.460;2023-03-01T03:09:07;-0.60;99.90
32502;DHT22;18952;52.516;13.460;2023-03-01T03:11:34;-0.60;99.90
32502;DHT22;18952;52.516;13.460;2023-03-01T03:14:01;-0.70;99.90
32502;DHT22;18952;52.516;13.460;2023-03-01T03:16:28;-0.70;99.90
32502;DHT22;18952;52.516;13.460;2023-03-01T03:18:55;-0.70;99.90
32502;DHT22;18952;52.516;13.460;2023-03-01T03:21:24;-0.70;99.90
32502;DHT22;18952;52.516;13.460;2023-03-01T03:23:51;-0.70;99.90
32502;DHT22;18952;52.516;13.460;2023-03-01T03:26:18;-0.70;99.90
32502;DHT22;18952;52.516;13.460;2023-03-01T03:28:45;-0.70;99.90
32502;DHT22;18952;52.516;13.460;2023-03-01T03:31:11;-0.70;99.90
32502;DHT22;18952;52.516;13.460;2023-03-01T03:33:38;-0.70;99.90
32502;DHT22;18952;52.516;13.460;2023-03-01T03:36:05;-0.80;99.90
32502;DHT22;18952;52.516;13.460;2023-03-01T03:38:32;-0.80;99.90
32502;DHT22;18952;52.516;13.460;2023-03-01T03:41:02;-0.80;99.90
32502;DHT22;18952;52.516;13.460;2023-03-01T03:43:32;-0.80;99.90
32502;DHT22;18952;52.516;13.460;2023-03-01T03:46:00;-0.80;99.90
32502;DHT22;18952;52.516;13.460;2023-03-01T03:48:27;-0.80;99.90
32502;DHT22;18952;52.516;13.460;2023-03-01T03:50:55;-0.80;99.90
32502;DHT22;18952;52.516;13.460;2023-03-01T03:53:24;-0.80;99.90
32502;DHT22;18952;52.516;13.460;2023-03-01T03:55:52;-0.80;99.90
32502;DHT22;18952;52.516;13.460;2023-03-01T03:58:20;-0.80;99.90
32502;DHT22;18952;52.516;13.460;2023-03-01T04:00:51;-0.90;99.90
32502;DHT22;18952;52.516;13.460;2023-03-01T04:03:19;-0.90;99.90
32502;DHT22;18952;52.516;13.460;2023-03-01T04:05:46;-0.90;99.90
32502;DHT22;18952;52.516;13.460;2023-03-01T04:08:13;-0.90;99.90
32502;DHT22;18952;52.516;13.460;2023-03-01T04:10:43;-0.90;99.90
32502;DHT22;18952;52.516;13.460;2023-03-01T04:13:13;-0.90;99.90
32502;DHT22;18952;52.516;13.460;2023-03-01T04:15:40;-0.90;99.90
32502;DHT22;18952;52.516;13.460;2023-03-01T04:18:09;-0.90;99.90
32502;DHT22;18952;52.516;13.460;2023-03-01T04:20:38;-0.90;99.90
32502;DHT22;18952;52.516;13.460;2023-03-01T04:23:07;-0.90;99.90
32502;DHT22;18952;52.516;13.460;2023-03-01T04:25:34;-1.00;99.90
32502;DHT22;18952;52.516;13.460;2023-03-01T04:28:01;-1.00;99.90
32502;DHT22;18952;52.516;13.460;2023-03-01T04:30:28;-1.00;99.90
32502;DHT22;18952;52.516;13.460;2023-03-01T04:32:55;-1.00;99.90
32502;DHT22;18952;52.516;13.460;2023-03-01T04:35:21;-1.00;99.90
32502;DHT22;18952;52.516;13.460;2023-03-01T04:37:51;-1.00;99.90
32502;DHT22;18952;52.516;13.460;2023-03-01T04:40:18;-1.10;99.90
32502;DHT22;18952;52.516;13.460;2023-03-01T04:42:45;-1.10;99.90
32502;DHT22;18952;52.516;13.460;2023-03-01T04:45:11;-1.10;99.90
32502;DHT22;18952;52.516;13.460;2023-03-01T04:47:40;-1.10;99.90
32502;DHT22;18952;52.516;13.460;2023-03-01T04:50:07;-1.10;99.90
32502;DHT22;18952;52.516;13.460;2023-03-01T04:52:35;-1.10;99.90
32502;DHT22;18952;52.516;13.460;2023-03-01T04:55:02;-1.10;99.90
32502;DHT22;18952;52.516;13.460;2023-03-01T04:57:29;-1.10;99.90
32502;DHT22;18952;52.516;13.460;2023-03-01T04:59:56;-1.10;99.90
32502;DHT22;18952;52.516;13.460;2023-03-01T05:02:23;-1.10;99.90
32502;DHT22;18952;52.516;13.460;2023-03-01T05:04:50;-1.10;99.90
32502;DHT22;18952;52.516;13.460;2023-03-01T05:07:17;-1.20;99.90
32502;DHT22;18952;52.516;13.460;2023-03-01T05:09:47;-1.10;99.90
32502;DHT22;18952;52.516;13.460;2023-03-01T05:12:15;-1.10;99.90
32502;DHT22;18952;52.516;13.460;2023-03-01T05:14:41;-1.10;99.90
32502;DHT22;18952;52.516;13.460;2023-03-01T05:17:08;-1.10;99.90
32502;DHT22;18952;52.516;13.460;2023-03-01T05:19:35;-1.10;99.90
32502;DHT22;18952;52.516;13.460;2023-03-01T05:22:02;-1.10;99.90
32502;DHT22;18952;52.516;13.460;2023-03-01T05:24:30;-1.10;99.90
32502;DHT22;18952;52.516;13.460;2023-03-01T05:26:57;-1.10;99.90
32502;DHT22;18952;52.516;13.460;2023-03-01T05:29:25;-1.10;99.90
32502;DHT22;18952;52.516;13.460;2023-03-01T05:31:56;-1.10;99.90
32502;DHT22;18952;52.516;13.460;2023-03-01T05:34:42;-1.10;99.90
32502;DHT22;18952;52.516;13.460;2023-03-01T05:37:08;-1.10;99.90
32502;DHT22;18952;52.516;13.460;2023-03-01T05:39:36;-1.10;99.90
32502;DHT22;18952;52.516;13.460;2023-03-01T05:42:03;-1.10;99.90
32502;DHT22;18952;52.516;13.460;2023-03-01T05:44:31;-1.20;99.90
32502;DHT22;18952;52.516;13.460;2023-03-01T05:46:58;-1.20;99.90
32502;DHT22;18952;52.516;13.460;2023-03-01T05:49:24;-1.20;99.90
32502;DHT22;18952;52.516;13.460;2023-03-01T05:51:52;-1.20;99.90
32502;DHT22;18952;52.516;13.460;2023-03-01T05:54:20;-1.20;99.90
32502;DHT22;18952;52.516;13.460;2023-03-01T05:56:47;-1.10;99.90
32502;DHT22;18952;52.516;13.460;2023-03-01T05:59:14;-1.20;99.90
32502;DHT22;18952;52.516;13.460;2023-03-01T06:01:43;-1.10;99.90
32502;DHT22;18952;52.516;13.460;2023-03-01T06:04:10;-1.10;99.90
32502;DHT22;18952;52.516;13.460;2023-03-01T06:06:37;-1.10;99.90
32502;DHT22;18952;52.516;13.460;2023-03-01T06:09:05;-1.10;99.90
32502;DHT22;18952;52.516;13.460;2023-03-01T06:11:34;-1.10;99.90
32502;DHT22;18952;52.516;13.460;2023-03-01T06:14:00;-1.10;99.90
32502;DHT22;18952;52.516;13.460;2023-03-01T06:16:27;-1.10;99.90
32502;DHT22;18952;52.516;13.460;2023-03-01T06:18:55;-1.10;99.90
32502;DHT22;18952;52.516;13.460;2023-03-01T06:21:21;-1.00;99.90
32502;DHT22;18952;52.516;13.460;2023-03-01T06:23:48;-1.00;99.90
32502;DHT22;18952;52.516;13.460;2023-03-01T06:26:15;-1.00;99.90
32502;DHT22;18952;52.516;13.460;2023-03-01T06:28:42;-1.00;99.90
32502;DHT22;18952;52.516;13.460;2023-03-01T06:31:08;-1.00;99.90
32502;DHT22;18952;52.516;13.460;2023-03-01T06:33:35;-0.90;99.90
32502;DHT22;18952;52.516;13.460;2023-03-01T06:36:02;-0.90;99.90
32502;DHT22;18952;52.516;13.460;2023-03-01T06:38:29;-0.90;99.90
32502;DHT22;18952;52.516;13.460;2023-03-01T06:40:56;-0.90;99.90
32502;DHT22;18952;52.516;13.460;2023-03-01T06:43:24;-0.90;99.90
32502;DHT22;18952;52.516;13.460;2023-03-01T06:45:50;-0.90;99.90
32502;DHT22;18952;52.516;13.460;2023-03-01T06:48:17;-0.80;99.90
32502;DHT22;18952;52.516;13.460;2023-03-01T06:50:44;-0.80;99.90
32502;DHT22;18952;52.516;13.460;2023-03-01T06:53:11;-0.80;99.90
32502;DHT22;18952;52.516;13.460;2023-03-01T06:55:38;-0.80;99.90
32502;DHT22;18952;52.516;13.460;2023-03-01T06:58:05;-0.80;99.90
32502;DHT22;18952;52.516;13.460;2023-03-01T07:00:32;-0.90;99.90
32502;DHT22;18952;52.516;13.460;2023-03-01T07:03:01;-0.90;99.90
32502;DHT22;18952;52.516;13.460;2023-03-01T07:05:29;-0.90;99.90
32502;DHT22;18952;52.516;13.460;2023-03-01T07:07:57;-0.80;99.90
32502;DHT22;18952;52.516;13.460;2023-03-01T07:10:24;-0.80;99.90
32502;DHT22;18952;52.516;13.460;2023-03-01T07:12:55;-0.70;99.90
32502;DHT22;18952;52.516;13.460;2023-03-01T07:15:22;-0.70;99.90
32502;DHT22;18952;52.516;13.460;2023-03-01T07:17:48;-0.70;99.90
32502;DHT22;18952;52.516;13.460;2023-03-01T07:20:16;-0.70;99.90
32502;DHT22;18952;52.516;13.460;2023-03-01T07:22:43;-0.70;99.90
32502;DHT22;18952;52.516;13.460;2023-03-01T07:25:10;-0.60;99.90
32502;DHT22;18952;52.516;13.460;2023-03-01T07:27:37;-0.60;99.90
32502;DHT22;18952;52.516;13.460;2023-03-01T07:30:05;-0.60;99.90
32502;DHT22;18952;52.516;13.460;2023-03-01T07:32:32;-0.50;99.90
32502;DHT22;18952;52.516;13.460;2023-03-01T07:34:59;-0.50;99.90
32502;DHT22;18952;52.516;13.460;2023-03-01T07:37:25;-0.40;99.90
32502;DHT22;18952;52.516;13.460;2023-03-01T07:39:53;-0.40;99.90
32502;DHT22;18952;52.516;13.460;2023-03-01T07:42:19;-0.40;99.90
32502;DHT22;18952;52.516;13.460;2023-03-01T07:44:46;-0.30;99.90
32502;DHT22;18952;52.516;13.460;2023-03-01T07:47:14;-0.30;99.90
32502;DHT22;18952;52.516;13.460;2023-03-01T07:49:41;-0.10;99.90
32502;DHT22;18952;52.516;13.460;2023-03-01T07:52:10;-0.10;99.90
32502;DHT22;18952;52.516;13.460;2023-03-01T07:54:38;0.00;99.90
32502;DHT22;18952;52.516;13.460;2023-03-01T07:57:05;0.10;99.90
32502;DHT22;18952;52.516;13.460;2023-03-01T07:59:32;0.10;99.90
32502;DHT22;18952;52.516;13.460;2023-03-01T08:01:58;0.20;99.90
32502;DHT22;18952;52.516;13.460;2023-03-01T08:04:26;0.20;99.90
32502;DHT22;18952;52.516;13.460;2023-03-01T08:06:56;0.20;99.90
32502;DHT22;18952;52.516;13.460;2023-03-01T08:09:23;0.30;99.90
32502;DHT22;18952;52.516;13.460;2023-03-01T08:11:50;0.30;99.90
32502;DHT22;18952;52.516;13.460;2023-03-01T08:14:17;0.40;99.90
32502;DHT22;18952;52.516;13.460;2023-03-01T08:16:43;0.40;99.90
32502;DHT22;18952;52.516;13.460;2023-03-01T08:19:11;0.50;99.90
32502;DHT22;18952;52.516;13.460;2023-03-01T08:21:38;0.60;99.90
32502;DHT22;18952;52.516;13.460;2023-03-01T08:24:06;0.60;99.90
32502;DHT22;18952;52.516;13.460;2023-03-01T08:26:36;0.70;99.90
32502;DHT22;18952;52.516;13.460;2023-03-01T08:29:04;0.80;99.90
32502;DHT22;18952;52.516;13.460;2023-03-01T08:31:36;0.80;99.90
32502;DHT22;18952;52.516;13.460;2023-03-01T08:34:07;0.90;99.90
32502;DHT22;18952;52.516;13.460;2023-03-01T08:36:39;0.90;99.90
32502;DHT22;18952;52.516;13.460;2023-03-01T08:39:08;1.00;99.90
32502;DHT22;18952;52.516;13.460;2023-03-01T08:41:35;1.10;99.90
32502;DHT22;18952;52.516;13.460;2023-03-01T08:44:02;1.20;99.90
32502;DHT22;18952;52.516;13.460;2023-03-01T08:46:32;1.20;99.90
32502;DHT22;18952;52.516;13.460;2023-03-01T08:48:59;1.30;99.90
32502;DHT22;18952;52.516;13.460;2023-03-01T08:51:26;1.40;99.90
32502;DHT22;18952;52.516;13.460;2023-03-01T08:53:53;1.40;99.90
32502;DHT22;18952;52.516;13.460;2023-03-01T08:56:20;1.40;99.90
32502;DHT22;18952;52.516;13.460;2023-03-01T08:58:48;1.50;99.90
32502;DHT22;18952;52.516;13.460;2023-03-01T09:01:17;1.50;99.90
32502;DHT22;18952;52.516;13.460;2023-03-01T09:03:44;1.50;99.90
32502;DHT22;18952;52.516;13.460;2023-03-01T09:06:12;1.60;99.90
32502;DHT22;18952;52.516;13.460;2023-03-01T09:08:41;1.70;99.90
32502;DHT22;18952;52.516;13.460;2023-03-01T09:11:10;1.70;99.90
32502;DHT22;18952;52.516;13.460;2023-03-01T09:13:37;1.80;99.90
32502;DHT22;18952;52.516;13.460;2023-03-01T09:16:08;1.80;99.90
32502;DHT22;18952;52.516;13.460;2023-03-01T09:18:35;1.90;99.90
32502;DHT22;18952;52.516;13.460;2023-03-01T09:21:07;1.90;99.90
32502;DHT22;18952;52.516;13.460;2023-03-01T09:23:35;2.00;99.90
32502;DHT22;18952;52.516;13.460;2023-03-01T09:26:03;2.00;99.90
32502;DHT22;18952;52.516;13.460;2023-03-01T09:28:30;2.00;99.90
32502;DHT22;18952;52.516;13.460;2023-03-01T09:31:00;2.00;99.90
32502;DHT22;18952;52.516;13.460;2023-03-01T09:33:28;2.10;99.90
32502;DHT22;18952;52.516;13.460;2023-03-01T09:36:00;2.10;99.90
32502;DHT22;18952;52.516;13.460;2023-03-01T09:38:27;2.20;99.90
32502;DHT22;18952;52.516;13.460;2023-03-01T09:40:54;2.20;99.90
32502;DHT22;18952;52.516;13.460;2023-03-01T09:46:13;2.30;99.90
32502;DHT22;18952;52.516;13.460;2023-03-01T09:48:50;2.40;99.90
32502;DHT22;18952;52.516;13.460;2023-03-01T09:51:26;2.50;99.90
32502;DHT22;18952;52.516;13.460;2023-03-01T09:53:55;2.50;99.90
32502;DHT22;18952;52.516;13.460;2023-03-01T09:56:34;2.60;99.90
32502;DHT22;18952;52.516;13.460;2023-03-01T09:59:30;2.60;99.90
32502;DHT22;18952;52.516;13.460;2023-03-01T10:02:16;2.70;99.90
32502;DHT22;18952;52.516;13.460;2023-03-01T10:04:48;2.80;99.90
32502;DHT22;18952;52.516;13.460;2023-03-01T10:08:23;2.80;99.90
32502;DHT22;18952;52.516;13.460;2023-03-01T10:10:22;2.80;99.90
32502;DHT22;18952;52.516;13.460;2023-03-01T10:12:52;2.90;99.90
32502;DHT22;18952;52.516;13.460;2023-03-01T10:15:38;2.90;99.90
32502;DHT22;18952;52.516;13.460;2023-03-01T10:18:14;3.00;99.90
32502;DHT22;18952;52.516;13.460;2023-03-01T10:20:48;3.10;99.90
32502;DHT22;18952;52.516;13.460;2023-03-01T10:23:17;3.20;99.90
32502;DHT22;18952;52.516;13.460;2023-03-01T10:25:52;3.20;99.90
32502;DHT22;18952;52.516;13.460;2023-03-01T10:28:41;3.20;99.90
32502;DHT22;18952;52.516;13.460;2023-03-01T10:31:18;3.30;99.90
32502;DHT22;18952;52.516;13.460;2023-03-01T10:33:48;3.30;99.90
32502;DHT22;18952;52.516;13.460;2023-03-01T10:36:15;3.30;99.90
32502;DHT22;18952;52.516;13.460;2023-03-01T10:38:56;3.40;99.90
32502;DHT22;18952;52.516;13.460;2023-03-01T10:41:27;3.40;99.90
32502;DHT22;18952;52.516;13.460;2023-03-01T10:43:58;3.40;99.90
32502;DHT22;18952;52.516;13.460;2023-03-01T10:46:29;3.40;99.90
32502;DHT22;18952;52.516;13.460;2023-03-01T10:49:18;3.40;99.90
32502;DHT22;18952;52.516;13.460;2023-03-01T10:51:48;3.40;99.90
32502;DHT22;18952;52.516;13.460;2023-03-01T10:56:50;3.50;99.90
32502;DHT22;18952;52.516;13.460;2023-03-01T10:59:30;3.50;99.90
32502;DHT22;18952;52.516;13.460;2023-03-01T11:07:51;3.60;99.90
32502;DHT22;18952;52.516;13.460;2023-03-01T11:10:25;3.60;99.90
32502;DHT22;18952;52.516;13.460;2023-03-01T11:12:53;3.60;96.70
32502;DHT22;18952;52.516;13.460;2023-03-01T11:15:26;3.60;95.80
32502;DHT22;18952;52.516;13.460;2023-03-01T11:17:56;3.60;95.80
32502;DHT22;18952;52.516;13.460;2023-03-01T11:20:35;3.70;92.80
32502;DHT22;18952;52.516;13.460;2023-03-01T11:23:05;3.70;93.60
32502;DHT22;18952;52.516;13.460;2023-03-01T11:25:38;3.70;94.00
32502;DHT22;18952;52.516;13.460;2023-03-01T11:28:07;3.80;92.40
32502;DHT22;18952;52.516;13.460;2023-03-01T11:31:01;3.80;91.90
32502;DHT22;18952;52.516;13.460;2023-03-01T11:33:46;3.80;91.90
32502;DHT22;18952;52.516;13.460;2023-03-01T11:36:44;3.90;92.40
32502;DHT22;18952;52.516;13.460;2023-03-01T11:41:49;4.00;90.20
32502;DHT22;18952;52.516;13.460;2023-03-01T11:44:28;4.00;90.80
32502;DHT22;18952;52.516;13.460;2023-03-01T11:55:36;4.20;82.60
32502;DHT22;18952;52.516;13.460;2023-03-01T12:07:27;4.50;84.30
32502;DHT22;18952;52.516;13.460;2023-03-01T12:15:33;4.80;85.90
32502;DHT22;18952;52.516;13.460;2023-03-01T12:21:17;5.10;84.90
32502;DHT22;18952;52.516;13.460;2023-03-01T12:26:30;5.30;80.60
32502;DHT22;18952;52.516;13.460;2023-03-01T12:37:38;5.80;79.60
32502;DHT22;18952;52.516;13.460;2023-03-01T12:40:38;6.00;78.40
32502;DHT22;18952;52.516;13.460;2023-03-01T12:49:14;6.50;74.70
32502;DHT22;18952;52.516;13.460;2023-03-01T12:51:59;6.70;75.00
32502;DHT22;18952;52.516;13.460;2023-03-01T12:54:33;6.80;72.90
32502;DHT22;18952;52.516;13.460;2023-03-01T12:57:18;6.90;73.60
32502;DHT22;18952;52.516;13.460;2023-03-01T13:00:27;7.10;71.40
32502;DHT22;18952;52.516;13.460;2023-03-01T13:04:07;7.20;72.00
32502;DHT22;18952;52.516;13.460;2023-03-01T13:06:32;7.30;65.80
32502;DHT22;18952;52.516;13.460;2023-03-01T13:11:59;7.40;66.60
32502;DHT22;18952;52.516;13.460;2023-03-01T13:16:59;7.70;66.20
32502;DHT22;18952;52.516;13.460;2023-03-01T13:19:28;7.90;65.80
32502;DHT22;18952;52.516;13.460;2023-03-01T13:21:56;8.10;65.90
32502;DHT22;18952;52.516;13.460;2023-03-01T13:24:50;8.30;65.00
32502;DHT22;18952;52.516;13.460;2023-03-01T13:29:47;8.80;63.10
32502;DHT22;18952;52.516;13.460;2023-03-01T13:32:31;8.90;62.50
32502;DHT22;18952;52.516;13.460;2023-03-01T13:37:41;9.00;61.50
32502;DHT22;18952;52.516;13.460;2023-03-01T13:42:48;8.90;60.20
32502;DHT22;18952;52.516;13.460;2023-03-01T13:45:42;8.90;61.70
32502;DHT22;18952;52.516;13.460;2023-03-01T13:48:21;9.00;61.60
32502;DHT22;18952;52.516;13.460;2023-03-01T13:51:03;9.10;60.60
32502;DHT22;18952;52.516;13.460;2023-03-01T13:53:34;9.20;60.60
32502;DHT22;18952;52.516;13.460;2023-03-01T13:56:17;9.20;59.50
32502;DHT22;18952;52.516;13.460;2023-03-01T13:58:54;9.20;59.10
32502;DHT22;18952;52.516;13.460;2023-03-01T14:01:23;9.40;59.10
32502;DHT22;18952;52.516;13.460;2023-03-01T14:03:51;9.70;58.80
32502;DHT22;18952;52.516;13.460;2023-03-01T14:06:29;9.90;58.60
32502;DHT22;18952;52.516;13.460;2023-03-01T14:09:10;10.10;57.90
32502;DHT22;18952;52.516;13.460;2023-03-01T14:20:27;10.90;55.60
32502;DHT22;18952;52.516;13.460;2023-03-01T14:22:59;10.90;56.10
32502;DHT22;18952;52.516;13.460;2023-03-01T14:25:33;10.90;54.80
32502;DHT22;18952;52.516;13.460;2023-03-01T14:28:18;10.90;55.40
32502;DHT22;18952;52.516;13.460;2023-03-01T14:30:48;11.00;56.10
32502;DHT22;18952;52.516;13.460;2023-03-01T14:35:58;11.20;56.60
32502;DHT22;18952;52.516;13.460;2023-03-01T14:38:36;11.30;56.30
32502;DHT22;18952;52.516;13.460;2023-03-01T14:41:15;11.40;58.30
32502;DHT22;18952;52.516;13.460;2023-03-01T14:43:46;11.50;58.60
32502;DHT22;18952;52.516;13.460;2023-03-01T14:46:34;11.60;57.80
32502;DHT22;18952;52.516;13.460;2023-03-01T14:49:16;11.50;57.50
32502;DHT22;18952;52.516;13.460;2023-03-01T14:51:52;11.60;57.20
32502;DHT22;18952;52.516;13.460;2023-03-01T14:54:29;11.60;56.50
32502;DHT22;18952;52.516;13.460;2023-03-01T14:57:02;11.60;56.70
32502;DHT22;18952;52.516;13.460;2023-03-01T14:59:29;11.60;56.90
32502;DHT22;18952;52.516;13.460;2023-03-01T15:01:57;11.70;56.90
32502;DHT22;18952;52.516;13.460;2023-03-01T15:04:26;11.70;56.70
32502;DHT22;18952;52.516;13.460;2023-03-01T15:06:55;11.70;57.30
32502;DHT22;18952;52.516;13.460;2023-03-01T15:09:22;11.80;57.10
32502;DHT22;18952;52.516;13.460;2023-03-01T15:11:49;11.70;56.80
32502;DHT22;18952;52.516;13.460;2023-03-01T15:14:46;11.70;56.50
32502;DHT22;18952;52.516;13.460;2023-03-01T15:17:32;11.60;56.30
32502;DHT22;18952;52.516;13.460;2023-03-01T15:20:04;11.50;57.10
32502;DHT22;18952;52.516;13.460;2023-03-01T15:22:32;11.50;57.10
32502;DHT22;18952;52.516;13.460;2023-03-01T15:24:59;11.50;57.00
32502;DHT22;18952;52.516;13.460;2023-03-01T15:27:27;11.40;57.40
32502;DHT22;18952;52.516;13.460;2023-03-01T15:29:59;11.30;56.30
32502;DHT22;18952;52.516;13.460;2023-03-01T15:32:32;11.30;56.90
32502;DHT22;18952;52.516;13.460;2023-03-01T15:38:55;11.20;56.90
32502;DHT22;18952;52.516;13.460;2023-03-01T15:41:32;11.10;56.30
32502;DHT22;18952;52.516;13.460;2023-03-01T15:44:13;11.10;57.30
32502;DHT22;18952;52.516;13.460;2023-03-01T15:46:46;11.10;56.90
32502;DHT22;18952;52.516;13.460;2023-03-01T15:51:54;10.90;57.50
32502;DHT22;18952;52.516;13.460;2023-03-01T15:54:24;10.70;57.60
32502;DHT22;18952;52.516;13.460;2023-03-01T15:56:54;10.50;57.70
32502;DHT22;18952;52.516;13.460;2023-03-01T15:59:21;10.30;58.50
32502;DHT22;18952;52.516;13.460;2023-03-01T16:01:48;10.10;58.80
32502;DHT22;18952;52.516;13.460;2023-03-01T16:04:17;9.80;59.50
32502;DHT22;18952;52.516;13.460;2023-03-01T16:06:46;9.50;59.70
32502;DHT22;18952;52.516;13.460;2023-03-01T16:09:13;9.30;60.40
32502;DHT22;18952;52.516;13.460;2023-03-01T16:11:39;9.10;60.80
32502;DHT22;18952;52.516;13.460;2023-03-01T16:14:07;9.00;61.30
32502;DHT22;18952;52.516;13.460;2023-03-01T16:16:35;8.80;61.70
32502;DHT22;18952;52.516;13.460;2023-03-01T16:19:02;8.70;62.10
32502;DHT22;18952;52.516;13.460;2023-03-01T16:21:30;8.50;62.40
32502;DHT22;18952;52.516;13.460;2023-03-01T16:23:58;8.30;63.00
32502;DHT22;18952;52.516;13.460;2023-03-01T16:26:26;8.20;63.10
32502;DHT22;18952;52.516;13.460;2023-03-01T16:28:56;8.10;63.60
32502;DHT22;18952;52.516;13.460;2023-03-01T16:31:25;7.90;64.10
32502;DHT22;18952;52.516;13.460;2023-03-01T16:33:57;7.80;64.60
32502;DHT22;18952;52.516;13.460;2023-03-01T16:36:25;7.70;65.10
32502;DHT22;18952;52.516;13.460;2023-03-01T16:38:53;7.60;65.60
32502;DHT22;18952;52.516;13.460;2023-03-01T16:41:22;7.50;66.00
32502;DHT22;18952;52.516;13.460;2023-03-01T16:43:49;7.40;66.30
32502;DHT22;18952;52.516;13.460;2023-03-01T16:46:19;7.30;67.10
32502;DHT22;18952;52.516;13.460;2023-03-01T16:48:47;7.20;67.00
32502;DHT22;18952;52.516;13.460;2023-03-01T16:51:15;7.10;67.30
32502;DHT22;18952;52.516;13.460;2023-03-01T16:53:42;7.00;67.70
32502;DHT22;18952;52.516;13.460;2023-03-01T16:56:15;7.00;68.30
32502;DHT22;18952;52.516;13.460;2023-03-01T16:58:46;6.90;68.50
32502;DHT22;18952;52.516;13.460;2023-03-01T17:01:17;6.80;69.00
32502;DHT22;18952;52.516;13.460;2023-03-01T17:03:46;6.70;69.50
32502;DHT22;18952;52.516;13.460;2023-03-01T17:06:18;6.60;70.00
32502;DHT22;18952;52.516;13.460;2023-03-01T17:08:46;6.50;70.40
32502;DHT22;18952;52.516;13.460;2023-03-01T17:11:18;6.40;70.80
32502;DHT22;18952;52.516;13.460;2023-03-01T17:13:45;6.40;71.40
32502;DHT22;18952;52.516;13.460;2023-03-01T17:16:15;6.30;71.70
32502;DHT22;18952;52.516;13.460;2023-03-01T17:18:42;6.20;72.30